createdAt,value
2022-10-19T00:00:30.599Z,29.05
2022-10-19T00:01:20.397Z,24.00
2022-10-19T00:02:08.211Z,22.48
2022-10-19T00:02:55.089Z,23.05
2022-10-19T00:03:42.914Z,22.40
2022-10-19T00:04:30.079Z,24.35
2022-10-19T00:05:17.364Z,23.30
2022-10-19T00:06:17.749Z,21.37
2022-10-19T00:07:04.680Z,20.25
2022-10-19T00:07:51.621Z,21.90
2022-10-19T00:08:38.653Z,24.42
2022-10-19T00:09:25.560Z,24.40
2022-10-19T00:10:12.651Z,22.00
2022-10-19T00:11:01.750Z,22.48
2022-10-19T00:11:50.511Z,20.25
2022-10-19T00:12:37.829Z,20.92
2022-10-19T00:13:24.890Z,26.25
2022-10-19T00:14:17.121Z,21.33
2022-10-19T00:15:05.670Z,23.62
2022-10-19T00:15:52.620Z,22.60
2022-10-19T00:16:39.665Z,23.35
2022-10-19T00:17:26.841Z,26.33
2022-10-19T00:18:13.738Z,24.55
2022-10-19T00:19:02.386Z,23.35
2022-10-19T00:19:49.400Z,23.23
2022-10-19T00:20:37.152Z,27.92
2022-10-19T00:21:24.231Z,24.25
2022-10-19T00:22:13.183Z,22.25
2022-10-19T00:23:01.041Z,22.60
2022-10-19T00:23:48.861Z,25.17
2022-10-19T00:24:35.810Z,26.65
2022-10-19T00:25:22.690Z,26.67
2022-10-19T00:26:10.025Z,31.20
2022-10-19T00:26:56.879Z,24.98
2022-10-19T00:27:44.059Z,23.83
2022-10-19T00:28:31.511Z,24.02
2022-10-19T00:29:18.490Z,24.10
2022-10-19T00:30:06.139Z,23.58
2022-10-19T00:30:53.182Z,28.25
2022-10-19T00:31:40.761Z,27.85
2022-10-19T00:32:27.871Z,28.15
2022-10-19T00:33:14.865Z,27.58
2022-10-19T00:34:01.961Z,29.02
2022-10-19T00:34:48.950Z,28.12
2022-10-19T00:35:40.769Z,26.30
2022-10-19T00:36:28.967Z,26.90
2022-10-19T00:37:15.899Z,31.17
2022-10-19T00:38:02.871Z,27.77
2022-10-19T00:38:49.860Z,29.37
2022-10-19T00:39:36.825Z,39.25
2022-10-19T00:40:23.782Z,33.30
2022-10-19T00:41:10.832Z,27.20
2022-10-19T00:41:57.690Z,30.27
2022-10-19T00:42:44.740Z,29.92
2022-10-19T00:43:31.840Z,29.85
2022-10-19T00:44:19.199Z,30.60
2022-10-19T00:45:15.572Z,25.27
2022-10-19T00:46:02.490Z,28.10
2022-10-19T00:46:49.489Z,28.15
2022-10-19T00:47:36.461Z,28.00
2022-10-19T00:48:26.964Z,29.48
2022-10-19T00:49:23.906Z,27.00
2022-10-19T00:50:11.418Z,33.25
2022-10-19T00:51:00.420Z,33.50
2022-10-19T00:51:51.910Z,30.08
2022-10-19T00:52:38.843Z,29.75
2022-10-19T00:53:29.342Z,29.63
2022-10-19T00:55:03.875Z,30.12
2022-10-19T00:55:50.950Z,30.40
2022-10-19T00:56:41.669Z,32.22
2022-10-19T00:57:30.889Z,30.77
2022-10-19T00:58:17.900Z,35.05
2022-10-19T00:59:05.761Z,34.45
2022-10-19T00:59:52.711Z,32.28
2022-10-19T01:00:39.916Z,29.95
2022-10-19T01:01:27.985Z,32.08
2022-10-19T01:02:14.842Z,34.40
2022-10-19T01:03:01.913Z,34.60
2022-10-19T01:03:49.240Z,35.55
2022-10-19T01:04:38.894Z,29.33
2022-10-19T01:05:26.806Z,29.92
2022-10-19T01:06:15.308Z,30.73
2022-10-19T01:07:04.273Z,29.73
2022-10-19T01:07:51.330Z,30.40
2022-10-19T01:08:38.330Z,28.83
2022-10-19T01:09:25.153Z,29.83
2022-10-19T01:10:12.580Z,29.30
2022-10-19T01:11:37.832Z,29.63
2022-10-19T01:12:58.999Z,30.05
2022-10-19T01:17:04.800Z,30.67
2022-10-19T01:18:25.460Z,34.10
2022-10-19T01:19:49.860Z,32.28
2022-10-19T01:20:52.349Z,35.65
2022-10-19T01:21:48.116Z,34.88
2022-10-19T01:23:11.861Z,33.00
2022-10-19T01:24:18.229Z,35.45
2022-10-19T01:25:31.052Z,33.20
2022-10-19T01:26:52.581Z,32.85
2022-10-19T01:27:46.751Z,31.12
2022-10-19T01:28:45.187Z,33.05
2022-10-19T01:29:56.861Z,33.05
2022-10-19T01:30:56.070Z,36.10
2022-10-19T01:32:00.671Z,33.55
2022-10-19T01:33:04.193Z,35.53
2022-10-19T01:34:10.999Z,33.25
2022-10-19T01:35:31.049Z,35.20
2022-10-19T01:36:24.209Z,32.33
2022-10-19T01:37:22.791Z,33.53
2022-10-19T01:38:25.657Z,35.53
2022-10-19T01:39:25.610Z,36.42
2022-10-19T01:40:40.090Z,37.88
2022-10-19T01:42:04.509Z,36.10
2022-10-19T01:43:04.749Z,37.83
2022-10-19T01:44:01.662Z,40.95
2022-10-19T01:44:58.880Z,37.70
2022-10-19T01:45:48.129Z,37.30
2022-10-19T01:46:39.289Z,38.80
2022-10-19T01:47:44.191Z,41.03
2022-10-19T01:48:35.260Z,43.15
2022-10-19T01:49:40.430Z,40.47
2022-10-19T01:50:40.181Z,45.25
2022-10-19T01:51:31.279Z,40.67
2022-10-19T01:52:20.016Z,41.47
2022-10-19T01:53:08.462Z,42.33
2022-10-19T01:53:58.441Z,43.08
2022-10-19T01:54:49.758Z,36.25
2022-10-19T01:55:41.051Z,42.03
2022-10-19T01:56:28.620Z,43.25
2022-10-19T01:57:23.156Z,42.47
2022-10-19T01:58:13.790Z,43.03
2022-10-19T01:59:04.091Z,40.80
2022-10-19T01:59:51.902Z,39.67
2022-10-19T02:00:41.457Z,39.55
2022-10-19T02:01:31.053Z,43.10
2022-10-19T02:02:18.952Z,40.08
2022-10-19T02:03:06.933Z,38.25
2022-10-19T02:03:54.550Z,39.75
2022-10-19T02:04:41.809Z,40.80
2022-10-19T02:05:32.460Z,40.63
2022-10-19T02:06:19.999Z,41.83
2022-10-19T02:07:07.700Z,45.35
2022-10-19T02:08:01.468Z,45.70
2022-10-19T02:08:50.990Z,41.50
2022-10-19T02:09:37.979Z,39.53
2022-10-19T02:10:25.361Z,41.83
2022-10-19T02:11:12.451Z,41.22
2022-10-19T02:12:02.508Z,39.03
2022-10-19T02:12:49.660Z,41.83
2022-10-19T02:13:37.469Z,41.45
2022-10-19T02:14:29.063Z,39.90
2022-10-19T02:15:20.969Z,36.47
2022-10-19T02:16:13.169Z,38.33
2022-10-19T02:17:04.019Z,41.25
2022-10-19T02:17:53.550Z,37.90
2022-10-19T02:18:45.341Z,38.13
2022-10-19T02:19:32.371Z,39.88
2022-10-19T02:20:20.771Z,39.22
2022-10-19T02:21:08.190Z,39.42
2022-10-19T02:21:55.180Z,36.00
2022-10-19T02:22:42.622Z,38.10
2022-10-19T02:23:29.670Z,37.15
2022-10-19T02:24:16.520Z,35.70
2022-10-19T02:25:03.843Z,42.90
2022-10-19T02:25:50.899Z,34.20
2022-10-19T02:26:38.480Z,37.78
2022-10-19T02:27:25.460Z,38.20
2022-10-19T02:28:12.629Z,39.33
2022-10-19T02:28:59.770Z,36.33
2022-10-19T02:29:46.871Z,38.50
2022-10-19T02:30:34.012Z,42.10
2022-10-19T02:31:21.229Z,41.30
2022-10-19T02:32:10.550Z,41.90
2022-10-19T02:32:57.491Z,41.70
2022-10-19T02:33:44.690Z,40.10
2022-10-19T02:34:31.850Z,41.28
2022-10-19T02:35:18.779Z,48.15
2022-10-19T02:36:06.033Z,41.25
2022-10-19T02:36:53.080Z,42.72
2022-10-19T02:37:40.631Z,44.58
2022-10-19T02:38:27.849Z,46.25
2022-10-19T02:39:14.818Z,41.17
2022-10-19T02:40:01.802Z,43.22
2022-10-19T02:41:07.386Z,46.35
2022-10-19T02:42:18.736Z,41.92
2022-10-19T02:43:10.822Z,44.90
2022-10-19T02:44:01.770Z,46.63
2022-10-19T02:44:53.851Z,51.42
2022-10-19T02:45:48.960Z,46.47
2022-10-19T02:46:44.847Z,44.30
2022-10-19T02:47:36.226Z,47.88
2022-10-19T02:48:25.230Z,48.08
2022-10-19T02:49:12.839Z,47.58
2022-10-19T02:49:59.763Z,48.03
2022-10-19T02:50:50.170Z,48.80
2022-10-19T02:51:39.580Z,49.05
2022-10-19T02:52:26.552Z,48.15
2022-10-19T02:53:14.283Z,48.13
2022-10-19T02:54:04.257Z,46.78
2022-10-19T02:54:52.280Z,50.55
2022-10-19T02:55:42.280Z,53.38
2022-10-19T02:56:29.390Z,50.75
2022-10-19T02:57:23.129Z,46.03
2022-10-19T02:58:10.385Z,49.58
2022-10-19T02:58:57.446Z,51.03
2022-10-19T02:59:44.498Z,53.63
2022-10-19T03:00:31.550Z,53.50
2022-10-19T03:01:18.567Z,51.92
2022-10-19T03:02:05.538Z,54.17
2022-10-19T03:02:52.493Z,54.17
2022-10-19T03:03:39.349Z,58.87
2022-10-19T03:04:26.309Z,53.13
2022-10-19T03:05:13.270Z,51.83
2022-10-19T03:06:00.183Z,50.10
2022-10-19T03:06:47.131Z,53.08
2022-10-19T03:07:34.253Z,55.22
2022-10-19T03:08:21.320Z,51.17
2022-10-19T03:09:08.621Z,50.30
2022-10-19T03:09:55.564Z,56.97
2022-10-19T03:10:42.630Z,55.35
2022-10-19T03:11:29.509Z,52.97
2022-10-19T03:12:16.520Z,57.92
2022-10-19T03:13:03.539Z,57.55
2022-10-19T03:13:50.444Z,53.35
2022-10-19T03:14:37.365Z,60.95
2022-10-19T03:15:27.491Z,55.38
2022-10-19T03:16:14.620Z,56.42
2022-10-19T03:17:01.552Z,57.58
2022-10-19T03:17:48.491Z,58.55
2022-10-19T03:18:35.498Z,59.60
2022-10-19T03:19:22.420Z,58.13
2022-10-19T03:20:10.708Z,58.95
2022-10-19T03:21:05.711Z,61.10
2022-10-19T03:21:52.641Z,57.30
2022-10-19T03:22:39.526Z,55.40
2022-10-19T03:23:26.450Z,56.85
2022-10-19T03:24:13.391Z,54.70
2022-10-19T03:25:00.360Z,61.50
2022-10-19T03:25:47.241Z,60.83
2022-10-19T03:26:34.250Z,55.40
2022-10-19T03:27:21.329Z,54.75
2022-10-19T03:28:08.249Z,58.53
2022-10-19T03:28:55.223Z,60.00
2022-10-19T03:29:42.150Z,57.35
2022-10-19T03:30:29.170Z,59.10
2022-10-19T03:31:16.000Z,61.08
2022-10-19T03:32:03.083Z,53.75
2022-10-19T03:32:50.059Z,58.60
2022-10-19T03:33:37.072Z,56.70
2022-10-19T03:34:24.011Z,59.53
2022-10-19T03:35:10.931Z,62.58
2022-10-19T03:36:16.391Z,60.10
2022-10-19T03:37:03.407Z,57.67
2022-10-19T03:37:50.320Z,59.00
2022-10-19T03:38:37.191Z,56.08
2022-10-19T03:39:24.141Z,57.85
2022-10-19T03:40:11.211Z,55.95
2022-10-19T03:40:58.181Z,57.47
2022-10-19T03:41:45.509Z,59.85
2022-10-19T03:42:32.579Z,63.15
2022-10-19T03:43:19.509Z,55.75
2022-10-19T03:44:07.472Z,54.45
2022-10-19T03:44:54.358Z,55.63
2022-10-19T03:45:41.270Z,55.47
2022-10-19T03:46:28.230Z,53.47
2022-10-19T03:47:15.301Z,56.70
2022-10-19T03:48:02.330Z,53.30
2022-10-19T03:48:49.728Z,51.67
2022-10-19T03:49:38.120Z,53.38
2022-10-19T03:51:16.129Z,55.15
2022-10-19T03:52:03.130Z,52.83
2022-10-19T03:52:50.346Z,51.63
2022-10-19T03:53:37.910Z,50.47
2022-10-19T03:54:27.300Z,52.13
2022-10-19T03:55:16.302Z,52.62
2022-10-19T03:56:09.171Z,49.15
2022-10-19T03:56:56.039Z,52.22
2022-10-19T03:57:43.030Z,51.90
2022-10-19T03:58:29.980Z,53.58
2022-10-19T03:59:17.131Z,51.20
2022-10-19T04:00:08.429Z,53.10
2022-10-19T04:00:55.484Z,49.55
2022-10-19T04:01:45.122Z,51.00
2022-10-19T04:02:32.180Z,48.97
2022-10-19T04:03:19.129Z,48.53
2022-10-19T04:04:10.690Z,51.92
2022-10-19T04:04:57.670Z,51.95
2022-10-19T04:05:44.668Z,49.50
2022-10-19T04:06:33.833Z,51.80
2022-10-19T04:07:20.774Z,50.90
2022-10-19T04:08:07.785Z,51.50
2022-10-19T04:08:55.180Z,48.80
2022-10-19T04:09:42.090Z,55.35
2022-10-19T04:10:31.545Z,53.08
2022-10-19T04:11:21.200Z,49.10
2022-10-19T04:12:08.060Z,50.83
2022-10-19T04:12:54.980Z,53.25
2022-10-19T04:13:42.039Z,50.08
2022-10-19T04:14:32.508Z,50.70
2022-10-19T04:15:19.860Z,53.15
2022-10-19T04:16:07.718Z,54.75
2022-10-19T04:16:54.780Z,48.42
2022-10-19T04:17:43.132Z,48.05
2022-10-19T04:18:31.771Z,53.33
2022-10-19T04:19:18.711Z,50.95
2022-10-19T04:20:06.282Z,49.58
2022-10-19T04:20:59.950Z,56.10
2022-10-19T04:21:49.154Z,50.97
2022-10-19T04:22:36.021Z,55.65
2022-10-19T04:23:22.941Z,53.13
2022-10-19T04:24:14.901Z,54.88
2022-10-19T04:25:01.862Z,54.72
2022-10-19T04:25:48.741Z,51.15
2022-10-19T04:26:40.750Z,51.15
2022-10-19T04:27:27.732Z,55.35
2022-10-19T04:28:14.649Z,58.63
2022-10-19T04:29:02.285Z,53.72
2022-10-19T04:29:49.180Z,52.15
2022-10-19T04:30:36.169Z,53.97
2022-10-19T04:31:23.061Z,53.17
2022-10-19T04:32:09.950Z,55.50
2022-10-19T04:32:56.999Z,54.75
2022-10-19T04:33:43.970Z,51.70
2022-10-19T04:34:30.844Z,52.05
2022-10-19T04:35:17.739Z,50.47
2022-10-19T04:36:07.152Z,57.15
2022-10-19T04:36:54.200Z,55.67
2022-10-19T04:37:41.089Z,53.45
2022-10-19T04:38:29.199Z,55.45
2022-10-19T04:39:16.200Z,54.90
2022-10-19T04:40:04.100Z,52.40
2022-10-19T04:40:51.130Z,50.47
2022-10-19T04:41:38.900Z,55.70
2022-10-19T04:42:25.769Z,53.80
2022-10-19T04:43:12.734Z,58.80
2022-10-19T04:44:01.501Z,53.33
2022-10-19T04:44:48.382Z,59.63
2022-10-19T04:45:35.991Z,53.20
2022-10-19T04:46:22.921Z,54.85
2022-10-19T04:47:09.761Z,53.97
2022-10-19T04:47:59.730Z,54.33
2022-10-19T04:48:48.049Z,54.55
2022-10-19T04:49:35.000Z,55.92
2022-10-19T04:50:22.004Z,51.92
2022-10-19T04:51:10.030Z,50.30
2022-10-19T04:51:56.910Z,48.33
2022-10-19T04:52:45.469Z,50.97
2022-10-19T04:53:33.384Z,49.45
2022-10-19T04:54:20.321Z,50.30
2022-10-19T04:55:07.551Z,51.60
2022-10-19T04:55:54.510Z,58.30
2022-10-19T04:56:41.491Z,51.95
2022-10-19T04:57:28.439Z,53.30
2022-10-19T04:58:15.471Z,51.90
2022-10-19T04:59:02.489Z,51.75
2022-10-19T04:59:49.530Z,52.33
2022-10-19T05:00:38.793Z,49.67
2022-10-19T05:01:27.669Z,49.88
2022-10-19T05:02:14.550Z,46.63
2022-10-19T05:03:01.528Z,49.53
2022-10-19T05:03:48.927Z,47.70
2022-10-19T05:04:35.849Z,51.90
2022-10-19T05:05:24.539Z,52.65
2022-10-19T05:06:12.510Z,49.53
2022-10-19T05:06:59.460Z,52.30
2022-10-19T05:07:49.225Z,52.50
2022-10-19T05:08:37.238Z,51.75
2022-10-19T05:09:24.393Z,49.03
2022-10-19T05:10:14.131Z,53.45
2022-10-19T05:11:06.303Z,49.45
2022-10-19T05:11:53.233Z,46.05
2022-10-19T05:12:40.170Z,47.40
2022-10-19T05:13:26.989Z,44.25
2022-10-19T05:14:13.985Z,51.22
2022-10-19T05:15:00.990Z,46.50
2022-10-19T05:15:58.133Z,46.97
2022-10-19T05:16:45.222Z,42.28
2022-10-19T05:17:33.279Z,43.58
2022-10-19T05:18:20.332Z,44.33
2022-10-19T05:19:07.360Z,43.03
2022-10-19T05:19:54.340Z,43.97
2022-10-19T05:20:41.211Z,46.83
2022-10-19T05:21:29.160Z,46.30
2022-10-19T05:22:16.105Z,44.47
2022-10-19T05:23:06.320Z,42.05
2022-10-19T05:23:55.344Z,42.22
2022-10-19T05:24:42.280Z,42.62
2022-10-19T05:25:29.220Z,43.28
2022-10-19T05:26:18.320Z,46.80
2022-10-19T05:27:05.222Z,42.30
2022-10-19T05:27:53.310Z,41.83
2022-10-19T05:28:40.547Z,41.15
2022-10-19T05:29:28.551Z,43.47
2022-10-19T05:30:15.640Z,39.58
2022-10-19T05:31:11.562Z,38.80
2022-10-19T05:31:58.511Z,42.40
2022-10-19T05:32:45.549Z,35.58
2022-10-19T05:33:32.721Z,32.70
2022-10-19T05:34:19.710Z,32.38
2022-10-19T05:35:06.927Z,32.60
2022-10-19T05:35:53.850Z,35.38
2022-10-19T05:36:41.098Z,31.75
2022-10-19T05:37:28.202Z,32.92
2022-10-19T05:38:15.022Z,30.98
2022-10-19T05:39:06.901Z,30.33
2022-10-19T05:39:55.110Z,28.80
2022-10-19T05:40:49.201Z,29.85
2022-10-19T05:41:38.501Z,27.23
2022-10-19T05:42:25.402Z,26.55
2022-10-19T05:43:12.370Z,26.33
2022-10-19T05:44:01.571Z,23.65
2022-10-19T05:44:48.517Z,25.48
2022-10-19T05:45:35.601Z,23.77
2022-10-19T05:46:22.800Z,23.25
2022-10-19T05:47:09.768Z,24.12
2022-10-19T05:47:56.771Z,22.58
2022-10-19T05:48:43.994Z,21.73
2022-10-19T05:49:31.150Z,22.58
2022-10-19T05:50:18.109Z,22.45
2022-10-19T05:51:06.446Z,22.37
2022-10-19T05:51:53.429Z,23.50
2022-10-19T05:52:40.303Z,21.60
2022-10-19T05:53:28.154Z,22.10
2022-10-19T05:54:15.420Z,22.23
2022-10-19T05:55:02.290Z,23.75
2022-10-19T05:55:49.189Z,20.23
2022-10-19T05:56:36.080Z,22.90
2022-10-19T05:57:23.029Z,21.52
2022-10-19T05:58:09.979Z,22.02
2022-10-19T05:58:58.020Z,22.23
2022-10-19T05:59:44.970Z,19.77
2022-10-19T06:00:31.901Z,20.45
2022-10-19T06:01:20.280Z,20.02
2022-10-19T06:02:07.358Z,19.77
2022-10-19T06:02:58.987Z,20.05
2022-10-19T06:03:47.320Z,21.60
2022-10-19T06:04:34.270Z,19.95
2022-10-19T06:05:21.171Z,19.92
2022-10-19T06:06:08.971Z,19.73
2022-10-19T06:06:55.900Z,21.12
2022-10-19T06:07:42.730Z,20.23
2022-10-19T06:08:29.619Z,20.30
2022-10-19T06:09:16.840Z,21.77
2022-10-19T06:10:04.320Z,24.15
2022-10-19T06:10:51.611Z,21.17
2022-10-19T06:11:40.551Z,20.60
2022-10-19T06:12:27.529Z,21.12
2022-10-19T06:13:15.230Z,22.13
2022-10-19T06:14:06.619Z,21.42
2022-10-19T06:14:53.482Z,19.92
2022-10-19T06:15:40.979Z,20.23
2022-10-19T06:16:29.081Z,21.98
2022-10-19T06:17:16.431Z,21.15
2022-10-19T06:18:07.881Z,20.95
2022-10-19T06:18:55.700Z,22.15
2022-10-19T06:19:42.743Z,20.58
2022-10-19T06:20:29.819Z,23.15
2022-10-19T06:21:18.620Z,21.20
2022-10-19T06:22:05.489Z,22.50
2022-10-19T06:22:52.581Z,21.02
2022-10-19T06:23:39.700Z,20.45
2022-10-19T06:24:26.994Z,23.02
2022-10-19T06:25:17.917Z,20.37
2022-10-19T06:26:09.701Z,20.23
2022-10-19T06:26:56.541Z,19.60
2022-10-19T06:27:43.580Z,20.92
2022-10-19T06:28:30.781Z,18.70
2022-10-19T06:29:17.771Z,17.30
2022-10-19T06:30:05.300Z,19.15
2022-10-19T06:30:52.489Z,19.80
2022-10-19T06:31:39.762Z,19.52
2022-10-19T06:32:26.721Z,17.30
2022-10-19T06:33:13.991Z,19.15
2022-10-19T06:34:01.425Z,17.55
2022-10-19T06:34:49.323Z,15.52
2022-10-19T06:35:37.089Z,17.17
2022-10-19T06:36:26.590Z,15.93
2022-10-19T06:37:13.440Z,15.70
2022-10-19T06:38:00.682Z,15.65
2022-10-19T06:38:48.470Z,15.23
2022-10-19T06:39:35.362Z,17.02
2022-10-19T06:40:22.403Z,15.15
2022-10-19T06:41:10.133Z,15.40
2022-10-19T06:41:57.161Z,15.43
2022-10-19T06:42:44.001Z,15.13
2022-10-19T06:43:31.012Z,15.20
2022-10-19T06:44:18.040Z,16.25
2022-10-19T06:45:10.180Z,14.68
2022-10-19T06:45:57.201Z,14.02
2022-10-19T06:46:44.044Z,13.80
2022-10-19T06:47:33.503Z,12.70
2022-10-19T06:48:20.837Z,13.57
2022-10-19T06:49:07.719Z,13.95
2022-10-19T06:49:54.620Z,12.48
2022-10-19T06:50:41.531Z,12.75
2022-10-19T06:51:30.370Z,13.20
2022-10-19T06:52:17.290Z,12.68
2022-10-19T06:53:04.169Z,14.25
2022-10-19T06:53:55.633Z,13.65
2022-10-19T06:54:43.810Z,12.07
2022-10-19T06:55:30.755Z,12.27
2022-10-19T06:56:17.860Z,12.35
2022-10-19T06:57:04.902Z,11.27
2022-10-19T06:57:52.011Z,11.85
2022-10-19T06:58:39.671Z,11.98
2022-10-19T06:59:27.120Z,11.65
2022-10-19T07:00:14.782Z,9.98
2022-10-19T07:01:02.185Z,10.75
2022-10-19T07:01:49.210Z,9.73
2022-10-19T07:02:36.079Z,9.23
2022-10-19T07:03:24.491Z,10.82
2022-10-19T07:04:11.640Z,9.27
2022-10-19T07:04:59.650Z,10.82
2022-10-19T07:05:55.935Z,10.60
2022-10-19T07:06:42.833Z,9.45
2022-10-19T07:07:29.925Z,13.23
2022-10-19T07:08:16.841Z,9.20
2022-10-19T07:09:04.090Z,8.45
2022-10-19T07:09:51.180Z,8.35
2022-10-19T07:10:38.204Z,8.30
2022-10-19T07:11:25.584Z,8.65
2022-10-19T07:12:12.710Z,8.48
2022-10-19T07:12:59.942Z,9.43
2022-10-19T07:13:46.939Z,8.27
2022-10-19T07:14:38.916Z,7.80
2022-10-19T07:15:25.931Z,7.72
2022-10-19T07:16:21.200Z,8.55
2022-10-19T07:17:08.671Z,7.10
2022-10-19T07:17:55.730Z,8.23
2022-10-19T07:18:43.161Z,7.37
2022-10-19T07:19:30.224Z,7.12
2022-10-19T07:20:17.306Z,7.40
2022-10-19T07:21:09.340Z,7.30
2022-10-19T07:21:56.400Z,6.60
2022-10-19T07:22:43.289Z,7.65
2022-10-19T07:23:31.532Z,6.45
2022-10-19T07:24:18.911Z,9.15
2022-10-19T07:25:06.131Z,6.53
2022-10-19T07:25:54.090Z,7.47
2022-10-19T07:26:41.091Z,6.15
2022-10-19T07:27:28.232Z,10.18
2022-10-19T07:28:15.162Z,7.75
2022-10-19T07:29:03.205Z,7.37
2022-10-19T07:29:50.542Z,6.22
2022-10-19T07:30:39.059Z,6.32
2022-10-19T07:31:27.620Z,6.53
2022-10-19T07:32:14.564Z,6.53
2022-10-19T07:33:01.424Z,6.25
2022-10-19T07:33:52.893Z,5.93
2022-10-19T07:34:39.881Z,6.18
2022-10-19T07:35:27.265Z,7.45
2022-10-19T07:36:14.501Z,8.25
2022-10-19T07:37:01.521Z,6.75
2022-10-19T07:37:48.433Z,7.95
2022-10-19T07:38:36.289Z,6.10
2022-10-19T07:39:23.293Z,6.30
2022-10-19T07:40:10.890Z,6.12
2022-10-19T07:41:12.932Z,7.30
2022-10-19T07:41:59.830Z,7.05
2022-10-19T07:42:46.811Z,6.28
2022-10-19T07:43:34.371Z,6.70
2022-10-19T07:44:21.352Z,6.37
2022-10-19T07:45:08.513Z,5.97
2022-10-19T07:46:06.199Z,8.10
2022-10-19T07:46:53.259Z,10.63
2022-10-19T07:47:40.110Z,6.45
2022-10-19T07:48:27.401Z,7.70
2022-10-19T07:49:19.302Z,5.72
2022-10-19T07:50:06.462Z,5.82
2022-10-19T07:50:53.421Z,5.75
2022-10-19T07:51:40.866Z,6.18
2022-10-19T07:52:29.139Z,7.00
2022-10-19T07:53:16.781Z,7.25
2022-10-19T07:54:04.340Z,5.97
2022-10-19T07:54:51.228Z,6.80
2022-10-19T07:55:38.169Z,6.82
2022-10-19T07:56:27.021Z,6.37
2022-10-19T07:57:14.150Z,6.80
2022-10-19T07:58:02.291Z,6.60
2022-10-19T07:58:51.361Z,7.18
2022-10-19T07:59:38.471Z,11.18
2022-10-19T08:00:25.647Z,6.15
2022-10-19T08:01:41.304Z,6.55
2022-10-19T08:02:39.382Z,6.90
2022-10-19T08:04:59.796Z,6.05
2022-10-19T08:05:47.949Z,5.85
2022-10-19T08:06:35.331Z,7.53
2022-10-19T08:07:22.300Z,13.90
2022-10-19T08:08:09.300Z,7.78
2022-10-19T08:08:56.917Z,7.53
2022-10-19T08:09:59.325Z,7.00
2022-10-19T08:10:46.374Z,8.63
2022-10-19T08:11:34.730Z,7.45
2022-10-19T08:12:21.740Z,8.07
2022-10-19T08:13:08.730Z,8.25
2022-10-19T08:13:56.231Z,7.65
2022-10-19T08:14:43.191Z,7.35
2022-10-19T08:15:30.670Z,9.40
2022-10-19T08:16:28.412Z,8.45
2022-10-19T08:17:17.901Z,8.35
2022-10-19T08:18:04.969Z,7.93
2022-10-19T08:18:53.109Z,8.00
2022-10-19T08:19:43.637Z,6.95
2022-10-19T08:20:30.701Z,6.85
2022-10-19T08:21:18.116Z,7.05
2022-10-19T08:22:05.092Z,8.23
2022-10-19T08:22:56.385Z,7.85
2022-10-19T08:23:45.751Z,6.68
2022-10-19T08:24:33.182Z,8.13
2022-10-19T08:25:20.568Z,7.10
2022-10-19T08:26:07.560Z,6.28
2022-10-19T08:26:55.007Z,7.78
2022-10-19T08:27:41.908Z,7.65
2022-10-19T08:28:28.860Z,7.70
2022-10-19T08:29:18.329Z,7.80
2022-10-19T08:30:05.700Z,8.60
2022-10-19T08:30:58.170Z,7.32
2022-10-19T08:31:46.550Z,6.93
2022-10-19T08:32:33.926Z,6.53
2022-10-19T08:33:21.049Z,7.65
2022-10-19T08:34:08.800Z,5.70
2022-10-19T08:34:55.755Z,6.62
2022-10-19T08:35:42.611Z,6.68
2022-10-19T08:36:31.598Z,7.70
2022-10-19T08:37:40.115Z,7.43
2022-10-19T08:38:26.841Z,7.32
2022-10-19T08:39:14.680Z,6.32
2022-10-19T08:40:01.480Z,7.18
2022-10-19T08:40:48.451Z,6.57
2022-10-19T08:41:41.245Z,5.80
2022-10-19T08:43:10.460Z,6.57
2022-10-19T08:44:00.296Z,9.68
2022-10-19T08:44:47.080Z,7.03
2022-10-19T08:45:43.569Z,6.45
2022-10-19T08:46:42.570Z,6.25
2022-10-19T08:47:51.372Z,5.55
2022-10-19T08:48:39.748Z,6.47
2022-10-19T08:49:27.962Z,5.10
2022-10-19T08:50:32.220Z,4.82
2022-10-19T08:51:19.230Z,6.00
2022-10-19T08:52:10.550Z,5.95
2022-10-19T08:53:32.830Z,5.35
2022-10-19T08:54:19.840Z,5.20
2022-10-19T08:55:20.457Z,4.82
2022-10-19T08:56:51.446Z,4.47
2022-10-19T08:58:04.410Z,5.72
2022-10-19T08:59:15.620Z,4.55
2022-10-19T09:00:35.270Z,5.12
2022-10-19T09:01:41.380Z,4.40
2022-10-19T09:02:43.201Z,5.30
2022-10-19T09:03:54.933Z,7.87
2022-10-19T09:04:47.289Z,5.18
2022-10-19T09:05:42.902Z,5.80
2022-10-19T09:06:43.535Z,5.75
2022-10-19T09:09:53.949Z,6.75
2022-10-19T09:10:43.401Z,5.95
2022-10-19T09:11:37.148Z,6.10
2022-10-19T09:12:58.564Z,8.48
2022-10-19T09:14:04.356Z,5.70
2022-10-19T09:15:01.203Z,7.05
2022-10-19T09:15:50.540Z,5.43
2022-10-19T09:16:37.440Z,6.32
2022-10-19T09:17:25.570Z,5.12
2022-10-19T09:18:25.832Z,5.95
2022-10-19T09:19:18.732Z,6.55
2022-10-19T09:20:20.231Z,6.47
2022-10-19T09:21:30.159Z,5.93
2022-10-19T09:22:30.019Z,5.37
2022-10-19T09:23:36.153Z,6.03
2022-10-19T09:24:47.173Z,5.68
2022-10-19T09:25:35.771Z,6.10
2022-10-19T09:26:26.957Z,5.10
2022-10-19T09:27:21.625Z,4.62
2022-10-19T09:28:36.617Z,5.20
2022-10-19T09:29:27.630Z,5.22
2022-10-19T09:30:23.955Z,5.22
2022-10-19T09:31:17.153Z,6.80
2022-10-19T09:32:06.490Z,7.50
2022-10-19T09:33:00.662Z,6.50
2022-10-19T09:33:52.396Z,6.03
2022-10-19T09:34:45.728Z,6.20
2022-10-19T09:35:36.790Z,6.72
2022-10-19T09:36:39.329Z,7.37
2022-10-19T09:37:32.689Z,7.00
2022-10-19T09:38:20.571Z,6.25
2022-10-19T09:39:14.150Z,8.13
2022-10-19T09:40:01.032Z,7.45
2022-10-19T09:40:47.879Z,6.80
2022-10-19T09:41:34.811Z,7.65
2022-10-19T09:42:30.535Z,6.00
2022-10-19T09:43:21.900Z,6.00
2022-10-19T09:44:08.632Z,6.80
2022-10-19T09:44:55.700Z,6.68
2022-10-19T09:45:48.949Z,6.68
2022-10-19T09:47:40.464Z,6.57
2022-10-19T09:48:30.209Z,6.85
2022-10-19T09:49:17.111Z,6.47
2022-10-19T09:50:07.078Z,8.07
2022-10-19T09:50:59.709Z,6.78
2022-10-19T09:51:51.916Z,7.28
2022-10-19T09:52:40.121Z,12.65
2022-10-19T09:53:27.700Z,6.62
2022-10-19T09:54:33.093Z,6.35
2022-10-19T09:55:42.575Z,7.75
2022-10-19T09:56:29.802Z,7.12
2022-10-19T09:57:22.201Z,7.85
2022-10-19T09:58:15.633Z,8.70
2022-10-19T09:59:02.860Z,7.28
2022-10-19T09:59:52.979Z,7.32
2022-10-19T10:00:45.112Z,6.10
2022-10-19T10:01:43.510Z,8.63
2022-10-19T10:02:33.059Z,6.55
2022-10-19T10:03:43.736Z,8.43
2022-10-19T10:04:30.730Z,7.53
2022-10-19T10:05:18.625Z,9.43
2022-10-19T10:06:09.259Z,8.90
2022-10-19T10:06:57.274Z,7.90
2022-10-19T10:07:44.751Z,7.25
2022-10-19T10:08:34.503Z,8.73
2022-10-19T10:09:27.389Z,7.25
2022-10-19T10:10:28.088Z,6.40
2022-10-19T10:11:25.561Z,8.20
2022-10-19T10:12:16.223Z,6.70
2022-10-19T10:13:03.392Z,7.87
2022-10-19T10:13:52.589Z,6.95
2022-10-19T10:14:40.763Z,5.93
2022-10-19T10:15:42.754Z,6.03
2022-10-19T10:16:30.639Z,5.90
2022-10-19T10:17:30.179Z,7.18
2022-10-19T10:18:17.880Z,5.55
2022-10-19T10:19:07.279Z,6.05
2022-10-19T10:20:00.234Z,6.50
2022-10-19T10:21:06.005Z,6.07
2022-10-19T10:21:55.842Z,5.72
2022-10-19T10:22:52.759Z,5.68
2022-10-19T10:23:40.025Z,6.12
2022-10-19T10:24:31.954Z,7.78
2022-10-19T10:25:19.379Z,6.70
2022-10-19T10:26:16.890Z,5.78
2022-10-19T10:27:05.614Z,7.22
2022-10-19T10:28:18.809Z,6.60
2022-10-19T10:29:20.859Z,6.62
2022-10-19T10:30:10.280Z,6.40
2022-10-19T10:31:08.319Z,5.65
2022-10-19T10:32:06.490Z,11.77
2022-10-19T10:32:54.757Z,7.18
2022-10-19T10:33:45.947Z,6.30
2022-10-19T10:35:00.994Z,6.32
2022-10-19T10:35:55.860Z,7.75
2022-10-19T10:36:42.884Z,6.50
2022-10-19T10:37:38.510Z,6.55
2022-10-19T10:38:32.847Z,7.30
2022-10-19T10:39:20.395Z,9.93
2022-10-19T10:40:29.957Z,7.15
2022-10-19T10:41:20.374Z,6.00
2022-10-19T10:42:10.037Z,6.50
2022-10-19T10:43:01.997Z,7.43
2022-10-19T10:43:58.435Z,7.82
2022-10-19T10:44:52.425Z,7.37
2022-10-19T10:45:44.515Z,7.50
2022-10-19T10:46:58.073Z,7.18
2022-10-19T10:47:48.760Z,7.45
2022-10-19T10:48:37.539Z,8.25
2022-10-19T10:49:36.499Z,6.35
2022-10-19T10:50:27.017Z,9.15
2022-10-19T10:52:11.574Z,10.57
2022-10-19T10:53:04.341Z,12.98
2022-10-19T10:53:51.382Z,8.98
2022-10-19T10:54:38.431Z,6.00
2022-10-19T10:55:26.771Z,9.40
2022-10-19T10:56:30.450Z,6.87
2022-10-19T10:57:20.296Z,8.38
2022-10-19T10:58:17.020Z,6.80
2022-10-19T10:59:31.062Z,9.02
2022-10-19T11:00:22.305Z,6.20
2022-10-19T11:01:18.854Z,6.50
2022-10-19T11:02:39.691Z,5.15
2022-10-19T11:03:29.119Z,6.60
2022-10-19T11:04:24.698Z,7.15
2022-10-19T11:05:26.803Z,7.53
2022-10-19T11:06:14.964Z,6.78
2022-10-19T11:07:15.798Z,6.45
2022-10-19T11:08:14.996Z,6.32